sensor_id;sensor_type;location;lat;lon;timestamp;temperature;humidity
54264;DHT22;40178;53.042;6.406;2023-02-02T00:02:00;3.60;99.90
54264;DHT22;40178;53.042;6.406;2023-02-02T00:04:31;3.60;99.90
54264;DHT22;40178;53.042;6.406;2023-02-02T00:06:57;3.50;99.90
54264;DHT22;40178;53.042;6.406;2023-02-02T00:09:25;3.60;99.90
54264;DHT22;40178;53.042;6.406;2023-02-02T00:11:53;3.50;99.90
54264;DHT22;40178;53.042;6.406;2023-02-02T00:14:19;3.60;99.90
54264;DHT22;40178;53.042;6.406;2023-02-02T00:16:50;3.60;99.90
54264;DHT22;40178;53.042;6.406;2023-02-02T00:19:27;3.50;99.90
54264;DHT22;40178;53.042;6.406;2023-02-02T00:21:54;3.70;99.90
54264;DHT22;40178;53.042;6.406;2023-02-02T00:24:21;3.60;99.90
54264;DHT22;40178;53.042;6.406;2023-02-02T00:26:50;2.90;99.90
54264;DHT22;40178;53.042;6.406;2023-02-02T00:29:23;3.70;99.90
54264;DHT22;40178;53.042;6.406;2023-02-02T00:31:50;3.80;99.90
54264;DHT22;40178;53.042;6.406;2023-02-02T00:34:16;3.90;99.90
54264;DHT22;40178;53.042;6.406;2023-02-02T00:36:43;3.90;99.90
54264;DHT22;40178;53.042;6.406;2023-02-02T00:39:11;3.90;99.90
54264;DHT22;40178;53.042;6.406;2023-02-02T00:41:38;4.00;99.90
54264;DHT22;40178;53.042;6.406;2023-02-02T00:44:04;4.00;99.90
54264;DHT22;40178;53.042;6.406;2023-02-02T00:46:48;4.20;99.90
54264;DHT22;40178;53.042;6.406;2023-02-02T00:49:13;4.20;99.90
54264;DHT22;40178;53.042;6.406;2023-02-02T00:51:39;4.30;99.90
54264;DHT22;40178;53.042;6.406;2023-02-02T00:54:05;4.40;99.90
54264;DHT22;40178;53.042;6.406;2023-02-02T00:56:30;4.40;99.90
54264;DHT22;40178;53.042;6.406;2023-02-02T00:58:56;4.40;99.90
54264;DHT22;40178;53.042;6.406;2023-02-02T01:01:22;4.40;99.90
54264;DHT22;40178;53.042;6.406;2023-02-02T01:03:48;4.40;99.90
54264;DHT22;40178;53.042;6.406;2023-02-02T01:06:14;4.50;99.90
54264;DHT22;40178;53.042;6.406;2023-02-02T01:08:40;4.50;99.90
54264;DHT22;40178;53.042;6.406;2023-02-02T01:11:06;4.40;99.90
54264;DHT22;40178;53.042;6.406;2023-02-02T01:13:32;4.50;99.90
54264;DHT22;40178;53.042;6.406;2023-02-02T01:15:58;4.50;99.90
54264;DHT22;40178;53.042;6.406;2023-02-02T01:18:26;4.50;99.90
54264;DHT22;40178;53.042;6.406;2023-02-02T01:21:04;4.50;99.90
54264;DHT22;40178;53.042;6.406;2023-02-02T01:23:30;4.50;99.90
54264;DHT22;40178;53.042;6.406;2023-02-02T01:26:00;4.60;99.90
54264;DHT22;40178;53.042;6.406;2023-02-02T01:28:27;4.60;99.90
54264;DHT22;40178;53.042;6.406;2023-02-02T01:30:53;4.60;99.90
54264;DHT22;40178;53.042;6.406;2023-02-02T01:33:19;4.60;99.90
54264;DHT22;40178;53.042;6.406;2023-02-02T01:35:46;4.70;99.90
54264;DHT22;40178;53.042;6.406;2023-02-02T01:38:12;4.60;99.90
54264;DHT22;40178;53.042;6.406;2023-02-02T01:40:54;4.70;99.90
54264;DHT22;40178;53.042;6.406;2023-02-02T01:43:27;4.70;99.90
54264;DHT22;40178;53.042;6.406;2023-02-02T01:45:53;4.70;99.90
54264;DHT22;40178;53.042;6.406;2023-02-02T01:48:30;4.70;99.90
54264;DHT22;40178;53.042;6.406;2023-02-02T01:50:59;4.70;99.90
54264;DHT22;40178;53.042;6.406;2023-02-02T01:53:26;4.80;99.90
54264;DHT22;40178;53.042;6.406;2023-02-02T01:55:52;4.90;99.90
54264;DHT22;40178;53.042;6.406;2023-02-02T01:58:24;4.90;99.90
54264;DHT22;40178;53.042;6.406;2023-02-02T02:00:50;4.90;99.90
54264;DHT22;40178;53.042;6.406;2023-02-02T02:03:20;5.00;99.90
54264;DHT22;40178;53.042;6.406;2023-02-02T02:05:55;5.10;99.90
54264;DHT22;40178;53.042;6.406;2023-02-02T02:08:23;5.00;99.90
54264;DHT22;40178;53.042;6.406;2023-02-02T02:10:50;5.10;99.90
54264;DHT22;40178;53.042;6.406;2023-02-02T02:13:17;5.20;99.90
54264;DHT22;40178;53.042;6.406;2023-02-02T02:16:02;5.20;99.90
54264;DHT22;40178;53.042;6.406;2023-02-02T02:19:17;5.20;99.90
54264;DHT22;40178;53.042;6.406;2023-02-02T02:22:09;5.20;99.90
54264;DHT22;40178;53.042;6.406;2023-02-02T02:25:20;5.20;99.90
54264;DHT22;40178;53.042;6.406;2023-02-02T02:28:43;5.30;99.90
54264;DHT22;40178;53.042;6.406;2023-02-02T02:42:37;5.50;99.90
54264;DHT22;40178;53.042;6.406;2023-02-02T02:45:05;5.50;99.90
54264;DHT22;40178;53.042;6.406;2023-02-02T02:47:32;5.60;99.90
54264;DHT22;40178;53.042;6.406;2023-02-02T02:49:59;5.60;99.90
54264;DHT22;40178;53.042;6.406;2023-02-02T02:52:24;5.70;99.90
54264;DHT22;40178;53.042;6.406;2023-02-02T02:54:52;5.70;99.90
54264;DHT22;40178;53.042;6.406;2023-02-02T03:00:17;5.80;99.90
54264;DHT22;40178;53.042;6.406;2023-02-02T03:05:49;5.70;99.90
54264;DHT22;40178;53.042;6.406;2023-02-02T03:10:46;5.70;99.90
54264;DHT22;40178;53.042;6.406;2023-02-02T03:13:13;5.70;99.90
54264;DHT22;40178;53.042;6.406;2023-02-02T03:15:43;6.10;99.90
54264;DHT22;40178;53.042;6.406;2023-02-02T03:18:10;5.70;99.90
54264;DHT22;40178;53.042;6.406;2023-02-02T03:20:37;5.70;99.90
54264;DHT22;40178;53.042;6.406;2023-02-02T03:23:02;5.80;99.90
54264;DHT22;40178;53.042;6.406;2023-02-02T03:25:28;5.70;99.90
54264;DHT22;40178;53.042;6.406;2023-02-02T03:27:53;5.70;99.90
54264;DHT22;40178;53.042;6.406;2023-02-02T03:30:19;5.70;99.90
54264;DHT22;40178;53.042;6.406;2023-02-02T03:32:46;5.60;99.90
54264;DHT22;40178;53.042;6.406;2023-02-02T03:35:12;5.50;99.90
54264;DHT22;40178;53.042;6.406;2023-02-02T03:37:37;5.40;99.90
54264;DHT22;40178;53.042;6.406;2023-02-02T03:40:04;5.30;99.90
54264;DHT22;40178;53.042;6.406;2023-02-02T03:42:30;5.20;99.90
54264;DHT22;40178;53.042;6.406;2023-02-02T03:44:55;5.10;99.90
54264;DHT22;40178;53.042;6.406;2023-02-02T03:47:21;5.10;99.90
54264;DHT22;40178;53.042;6.406;2023-02-02T03:49:46;5.00;99.90
54264;DHT22;40178;53.042;6.406;2023-02-02T03:52:12;5.00;99.90
54264;DHT22;40178;53.042;6.406;2023-02-02T03:54:37;4.90;99.90
54264;DHT22;40178;53.042;6.406;2023-02-02T03:57:03;4.90;99.90
54264;DHT22;40178;53.042;6.406;2023-02-02T03:59:29;4.90;99.90
54264;DHT22;40178;53.042;6.406;2023-02-02T04:01:54;4.80;99.90
54264;DHT22;40178;53.042;6.406;2023-02-02T04:04:20;4.80;99.90
54264;DHT22;40178;53.042;6.406;2023-02-02T04:06:45;4.90;99.90
54264;DHT22;40178;53.042;6.406;2023-02-02T04:09:11;4.80;99.90
54264;DHT22;40178;53.042;6.406;2023-02-02T04:11:36;4.70;99.90
54264;DHT22;40178;53.042;6.406;2023-02-02T04:14:02;4.80;99.90
54264;DHT22;40178;53.042;6.406;2023-02-02T04:16:27;4.80;99.90
54264;DHT22;40178;53.042;6.406;2023-02-02T04:18:55;4.70;99.90
54264;DHT22;40178;53.042;6.406;2023-02-02T04:21:20;4.80;99.90
54264;DHT22;40178;53.042;6.406;2023-02-02T04:23:46;4.70;99.90
54264;DHT22;40178;53.042;6.406;2023-02-02T04:26:11;4.70;99.90
54264;DHT22;40178;53.042;6.406;2023-02-02T04:28:37;4.70;99.90
54264;DHT22;40178;53.042;6.406;2023-02-02T04:31:03;4.70;99.90
54264;DHT22;40178;53.042;6.406;2023-02-02T04:33:28;4.70;99.90
54264;DHT22;40178;53.042;6.406;2023-02-02T04:35:54;4.70;99.90
54264;DHT22;40178;53.042;6.406;2023-02-02T04:38:19;4.70;99.90
54264;DHT22;40178;53.042;6.406;2023-02-02T04:40:46;4.70;99.90
54264;DHT22;40178;53.042;6.406;2023-02-02T04:43:12;4.80;99.90
54264;DHT22;40178;53.042;6.406;2023-02-02T04:45:38;4.70;99.90
54264;DHT22;40178;53.042;6.406;2023-02-02T04:48:04;4.70;99.90
54264;DHT22;40178;53.042;6.406;2023-02-02T04:50:30;4.80;99.90
54264;DHT22;40178;53.042;6.406;2023-02-02T04:52:56;4.70;99.90
54264;DHT22;40178;53.042;6.406;2023-02-02T04:55:22;4.80;99.90
54264;DHT22;40178;53.042;6.406;2023-02-02T04:57:47;4.70;99.90
54264;DHT22;40178;53.042;6.406;2023-02-02T05:00:13;4.70;99.90
54264;DHT22;40178;53.042;6.406;2023-02-02T05:02:40;4.70;99.90
54264;DHT22;40178;53.042;6.406;2023-02-02T05:05:09;4.70;99.90
54264;DHT22;40178;53.042;6.406;2023-02-02T05:07:35;4.60;99.90
54264;DHT22;40178;53.042;6.406;2023-02-02T05:10:02;4.60;99.90
54264;DHT22;40178;53.042;6.406;2023-02-02T05:12:28;4.70;99.90
54264;DHT22;40178;53.042;6.406;2023-02-02T05:14:53;4.60;99.90
54264;DHT22;40178;53.042;6.406;2023-02-02T05:17:19;4.80;99.90
54264;DHT22;40178;53.042;6.406;2023-02-02T05:19:44;4.80;99.90
54264;DHT22;40178;53.042;6.406;2023-02-02T05:22:10;4.70;99.90
54264;DHT22;40178;53.042;6.406;2023-02-02T05:24:36;4.70;99.90
54264;DHT22;40178;53.042;6.406;2023-02-02T05:27:01;4.70;99.90
54264;DHT22;40178;53.042;6.406;2023-02-02T05:29:27;4.60;99.90
54264;DHT22;40178;53.042;6.406;2023-02-02T05:31:53;4.60;99.90
54264;DHT22;40178;53.042;6.406;2023-02-02T05:34:19;4.60;99.90
54264;DHT22;40178;53.042;6.406;2023-02-02T05:36:45;4.60;99.90
54264;DHT22;40178;53.042;6.406;2023-02-02T05:39:11;4.80;99.90
54264;DHT22;40178;53.042;6.406;2023-02-02T05:41:36;4.60;99.90
54264;DHT22;40178;53.042;6.406;2023-02-02T05:44:02;4.70;99.90
54264;DHT22;40178;53.042;6.406;2023-02-02T05:46:28;4.70;99.90
54264;DHT22;40178;53.042;6.406;2023-02-02T05:48:54;4.60;99.90
54264;DHT22;40178;53.042;6.406;2023-02-02T05:51:28;4.60;99.90
54264;DHT22;40178;53.042;6.406;2023-02-02T05:53:55;4.70;99.90
54264;DHT22;40178;53.042;6.406;2023-02-02T05:56:21;4.70;99.90
54264;DHT22;40178;53.042;6.406;2023-02-02T05:58:46;4.60;99.90
54264;DHT22;40178;53.042;6.406;2023-02-02T06:01:15;4.60;99.90
54264;DHT22;40178;53.042;6.406;2023-02-02T06:03:41;4.70;99.90
54264;DHT22;40178;53.042;6.406;2023-02-02T06:06:07;4.60;99.90
54264;DHT22;40178;53.042;6.406;2023-02-02T06:08:32;4.70;99.90
54264;DHT22;40178;53.042;6.406;2023-02-02T06:10:58;4.70;99.90
54264;DHT22;40178;53.042;6.406;2023-02-02T06:13:24;4.60;99.90
54264;DHT22;40178;53.042;6.406;2023-02-02T06:15:49;4.70;99.90
54264;DHT22;40178;53.042;6.406;2023-02-02T06:18:15;4.80;99.90
54264;DHT22;40178;53.042;6.406;2023-02-02T06:20:40;4.70;99.90
54264;DHT22;40178;53.042;6.406;2023-02-02T06:23:06;4.70;99.90
54264;DHT22;40178;53.042;6.406;2023-02-02T06:25:31;4.60;99.90
54264;DHT22;40178;53.042;6.406;2023-02-02T06:27:59;4.80;99.90
54264;DHT22;40178;53.042;6.406;2023-02-02T06:30:25;4.70;99.90
54264;DHT22;40178;53.042;6.406;2023-02-02T06:32:51;4.80;99.90
54264;DHT22;40178;53.042;6.406;2023-02-02T06:35:17;4.60;99.90
54264;DHT22;40178;53.042;6.406;2023-02-02T06:37:43;4.90;99.90
54264;DHT22;40178;53.042;6.406;2023-02-02T06:40:09;4.70;99.90
54264;DHT22;40178;53.042;6.406;2023-02-02T06:42:35;4.70;99.90
54264;DHT22;40178;53.042;6.406;2023-02-02T06:45:01;4.80;99.90
54264;DHT22;40178;53.042;6.406;2023-02-02T06:47:27;4.70;99.90
54264;DHT22;40178;53.042;6.406;2023-02-02T06:49:53;4.80;99.90
54264;DHT22;40178;53.042;6.406;2023-02-02T06:52:19;4.70;99.90
54264;DHT22;40178;53.042;6.406;2023-02-02T06:54:44;4.70;99.90
54264;DHT22;40178;53.042;6.406;2023-02-02T06:57:10;4.90;99.90
54264;DHT22;40178;53.042;6.406;2023-02-02T06:59:35;4.70;99.90
54264;DHT22;40178;53.042;6.406;2023-02-02T07:02:02;4.80;99.90
54264;DHT22;40178;53.042;6.406;2023-02-02T07:04:28;4.80;99.90
54264;DHT22;40178;53.042;6.406;2023-02-02T07:06:53;5.20;99.90
54264;DHT22;40178;53.042;6.406;2023-02-02T07:09:19;4.90;99.90
54264;DHT22;40178;53.042;6.406;2023-02-02T07:11:44;4.90;99.90
54264;DHT22;40178;53.042;6.406;2023-02-02T07:14:10;4.90;99.90
54264;DHT22;40178;53.042;6.406;2023-02-02T07:16:36;4.90;99.90
54264;DHT22;40178;53.042;6.406;2023-02-02T07:19:02;4.90;99.90
54264;DHT22;40178;53.042;6.406;2023-02-02T07:21:28;4.80;99.90
54264;DHT22;40178;53.042;6.406;2023-02-02T07:24:00;4.80;99.90
54264;DHT22;40178;53.042;6.406;2023-02-02T07:26:25;4.80;99.90
54264;DHT22;40178;53.042;6.406;2023-02-02T07:28:51;4.80;99.90
54264;DHT22;40178;53.042;6.406;2023-02-02T07:31:23;4.80;99.90
54264;DHT22;40178;53.042;6.406;2023-02-02T07:33:49;4.90;99.90
54264;DHT22;40178;53.042;6.406;2023-02-02T07:36:17;4.80;99.90
54264;DHT22;40178;53.042;6.406;2023-02-02T07:38:44;4.80;99.90
54264;DHT22;40178;53.042;6.406;2023-02-02T07:41:11;4.80;99.90
54264;DHT22;40178;53.042;6.406;2023-02-02T07:43:37;4.90;99.90
54264;DHT22;40178;53.042;6.406;2023-02-02T07:46:05;4.80;99.90
54264;DHT22;40178;53.042;6.406;2023-02-02T07:48:33;5.00;99.90
54264;DHT22;40178;53.042;6.406;2023-02-02T07:50:59;5.00;99.90
54264;DHT22;40178;53.042;6.406;2023-02-02T07:53:26;4.90;99.90
54264;DHT22;40178;53.042;6.406;2023-02-02T07:55:51;5.00;99.90
54264;DHT22;40178;53.042;6.406;2023-02-02T07:58:17;4.90;99.90
54264;DHT22;40178;53.042;6.406;2023-02-02T08:00:43;5.00;99.90
54264;DHT22;40178;53.042;6.406;2023-02-02T08:03:11;5.10;99.90
54264;DHT22;40178;53.042;6.406;2023-02-02T08:05:37;5.10;99.90
54264;DHT22;40178;53.042;6.406;2023-02-02T08:08:03;5.10;99.90
54264;DHT22;40178;53.042;6.406;2023-02-02T08:10:29;4.90;99.90
54264;DHT22;40178;53.042;6.406;2023-02-02T08:12:55;5.10;99.90
54264;DHT22;40178;53.042;6.406;2023-02-02T08:15:20;4.90;99.90
54264;DHT22;40178;53.042;6.406;2023-02-02T08:17:46;5.10;99.90
54264;DHT22;40178;53.042;6.406;2023-02-02T08:20:14;5.00;99.90
54264;DHT22;40178;53.042;6.406;2023-02-02T08:22:40;5.10;99.90
54264;DHT22;40178;53.042;6.406;2023-02-02T08:25:07;5.10;99.90
54264;DHT22;40178;53.042;6.406;2023-02-02T08:27:32;5.20;99.90
54264;DHT22;40178;53.042;6.406;2023-02-02T08:29:58;5.10;99.90
54264;DHT22;40178;53.042;6.406;2023-02-02T08:32:24;5.00;99.90
54264;DHT22;40178;53.042;6.406;2023-02-02T08:34:49;5.00;99.90
54264;DHT22;40178;53.042;6.406;2023-02-02T08:37:16;5.20;99.90
54264;DHT22;40178;53.042;6.406;2023-02-02T08:39:42;5.30;99.90
54264;DHT22;40178;53.042;6.406;2023-02-02T08:42:08;5.20;99.90
54264;DHT22;40178;53.042;6.406;2023-02-02T08:44:34;5.40;99.90
54264;DHT22;40178;53.042;6.406;2023-02-02T08:46:59;5.30;99.90
54264;DHT22;40178;53.042;6.406;2023-02-02T08:49:25;5.30;99.90
54264;DHT22;40178;53.042;6.406;2023-02-02T08:51:51;5.20;99.90
54264;DHT22;40178;53.042;6.406;2023-02-02T08:54:16;5.20;99.90
54264;DHT22;40178;53.042;6.406;2023-02-02T08:56:42;5.50;99.90
54264;DHT22;40178;53.042;6.406;2023-02-02T08:59:08;5.40;99.90
54264;DHT22;40178;53.042;6.406;2023-02-02T09:01:34;5.60;99.90
54264;DHT22;40178;53.042;6.406;2023-02-02T09:04:02;5.60;99.90
54264;DHT22;40178;53.042;6.406;2023-02-02T09:06:36;5.50;99.90
54264;DHT22;40178;53.042;6.406;2023-02-02T09:09:04;5.70;99.90
54264;DHT22;40178;53.042;6.406;2023-02-02T09:11:30;5.60;99.90
54264;DHT22;40178;53.042;6.406;2023-02-02T09:13:58;5.60;99.90
54264;DHT22;40178;53.042;6.406;2023-02-02T09:16:26;5.50;99.90
54264;DHT22;40178;53.042;6.406;2023-02-02T09:18:53;6.10;99.90
54264;DHT22;40178;53.042;6.406;2023-02-02T09:21:19;6.40;99.90
54264;DHT22;40178;53.042;6.406;2023-02-02T09:23:45;5.70;99.90
54264;DHT22;40178;53.042;6.406;2023-02-02T09:26:29;5.70;99.90
54264;DHT22;40178;53.042;6.406;2023-02-02T09:28:59;6.30;99.90
54264;DHT22;40178;53.042;6.406;2023-02-02T09:31:29;5.90;99.90
54264;DHT22;40178;53.042;6.406;2023-02-02T09:34:02;5.80;99.90
54264;DHT22;40178;53.042;6.406;2023-02-02T09:36:29;6.00;99.90
54264;DHT22;40178;53.042;6.406;2023-02-02T09:38:55;5.80;99.90
54264;DHT22;40178;53.042;6.406;2023-02-02T09:49:59;6.00;99.90
54264;DHT22;40178;53.042;6.406;2023-02-02T09:52:31;6.00;99.90
54264;DHT22;40178;53.042;6.406;2023-02-02T09:55:06;6.10;99.90
54264;DHT22;40178;53.042;6.406;2023-02-02T09:57:46;6.70;99.90
54264;DHT22;40178;53.042;6.406;2023-02-02T10:00:31;6.20;99.90
54264;DHT22;40178;53.042;6.406;2023-02-02T10:03:01;6.30;99.90
54264;DHT22;40178;53.042;6.406;2023-02-02T10:05:44;6.20;99.90
54264;DHT22;40178;53.042;6.406;2023-02-02T10:08:19;6.30;99.90
54264;DHT22;40178;53.042;6.406;2023-02-02T10:10:46;6.40;99.90
54264;DHT22;40178;53.042;6.406;2023-02-02T10:13:16;6.40;99.90
54264;DHT22;40178;53.042;6.406;2023-02-02T10:15:47;6.50;99.90
54264;DHT22;40178;53.042;6.406;2023-02-02T10:18:44;6.50;99.90
54264;DHT22;40178;53.042;6.406;2023-02-02T10:21:26;6.50;99.90
54264;DHT22;40178;53.042;6.406;2023-02-02T10:23:54;6.50;99.90
54264;DHT22;40178;53.042;6.406;2023-02-02T10:29:13;6.60;99.90
54264;DHT22;40178;53.042;6.406;2023-02-02T10:37:05;6.60;99.90
54264;DHT22;40178;53.042;6.406;2023-02-02T10:42:41;6.60;99.90
54264;DHT22;40178;53.042;6.406;2023-02-02T10:45:31;6.70;99.90
54264;DHT22;40178;53.042;6.406;2023-02-02T10:47:57;6.80;99.90
54264;DHT22;40178;53.042;6.406;2023-02-02T10:50:23;6.80;99.90
54264;DHT22;40178;53.042;6.406;2023-02-02T10:52:53;6.60;99.90
54264;DHT22;40178;53.042;6.406;2023-02-02T10:58:19;6.70;99.90
54264;DHT22;40178;53.042;6.406;2023-02-02T11:00:52;6.80;99.90
54264;DHT22;40178;53.042;6.406;2023-02-02T11:03:22;6.80;99.90
54264;DHT22;40178;53.042;6.406;2023-02-02T11:05:49;6.80;99.90
54264;DHT22;40178;53.042;6.406;2023-02-02T11:08:42;6.60;99.90
54264;DHT22;40178;53.042;6.406;2023-02-02T11:11:19;6.60;99.90
54264;DHT22;40178;53.042;6.406;2023-02-02T11:14:14;6.80;99.90
54264;DHT22;40178;53.042;6.406;2023-02-02T11:16:42;6.80;99.90
54264;DHT22;40178;53.042;6.406;2023-02-02T11:21:53;6.60;99.90
54264;DHT22;40178;53.042;6.406;2023-02-02T11:24:47;6.60;99.90
54264;DHT22;40178;53.042;6.406;2023-02-02T11:27:32;6.60;99.90
54264;DHT22;40178;53.042;6.406;2023-02-02T11:30:11;6.70;99.90
54264;DHT22;40178;53.042;6.406;2023-02-02T11:32:43;6.70;99.90
54264;DHT22;40178;53.042;6.406;2023-02-02T11:35:26;6.70;99.90
54264;DHT22;40178;53.042;6.406;2023-02-02T11:40:34;6.70;99.90
54264;DHT22;40178;53.042;6.406;2023-02-02T11:43:04;6.70;99.90
54264;DHT22;40178;53.042;6.406;2023-02-02T11:45:36;6.70;99.90
54264;DHT22;40178;53.042;6.406;2023-02-02T11:48:21;6.60;99.90
54264;DHT22;40178;53.042;6.406;2023-02-02T11:50:53;6.80;99.90
54264;DHT22;40178;53.042;6.406;2023-02-02T11:56:00;6.70;99.90
54264;DHT22;40178;53.042;6.406;2023-02-02T11:58:47;6.60;99.90
54264;DHT22;40178;53.042;6.406;2023-02-02T12:01:34;6.60;99.90
54264;DHT22;40178;53.042;6.406;2023-02-02T12:04:22;6.60;99.90
54264;DHT22;40178;53.042;6.406;2023-02-02T12:06:48;6.50;99.90
54264;DHT22;40178;53.042;6.406;2023-02-02T12:09:24;6.70;99.90
54264;DHT22;40178;53.042;6.406;2023-02-02T12:12:02;6.60;99.90
54264;DHT22;40178;53.042;6.406;2023-02-02T12:14:38;6.60;99.90
54264;DHT22;40178;53.042;6.406;2023-02-02T12:22:57;6.60;99.90
54264;DHT22;40178;53.042;6.406;2023-02-02T12:25:39;6.50;99.90
54264;DHT22;40178;53.042;6.406;2023-02-02T12:28:41;6.70;99.90
54264;DHT22;40178;53.042;6.406;2023-02-02T12:33:56;6.60;99.90
54264;DHT22;40178;53.042;6.406;2023-02-02T12:47:40;6.70;99.90
54264;DHT22;40178;53.042;6.406;2023-02-02T12:50:21;6.60;99.90
54264;DHT22;40178;53.042;6.406;2023-02-02T12:52:54;6.60;99.90
54264;DHT22;40178;53.042;6.406;2023-02-02T12:55:36;6.60;99.90
54264;DHT22;40178;53.042;6.406;2023-02-02T12:59:11;6.70;99.90
54264;DHT22;40178;53.042;6.406;2023-02-02T13:01:35;6.60;99.90
54264;DHT22;40178;53.042;6.406;2023-02-02T13:11:52;6.70;99.90
54264;DHT22;40178;53.042;6.406;2023-02-02T13:14:43;6.60;99.90
54264;DHT22;40178;53.042;6.406;2023-02-02T13:20:27;6.80;99.90
54264;DHT22;40178;53.042;6.406;2023-02-02T13:22:59;6.80;99.90
54264;DHT22;40178;53.042;6.406;2023-02-02T13:25:30;6.60;99.90
54264;DHT22;40178;53.042;6.406;2023-02-02T13:27:59;6.70;99.90
54264;DHT22;40178;53.042;6.406;2023-02-02T13:30:52;6.70;99.90
54264;DHT22;40178;53.042;6.406;2023-02-02T13:33:28;6.70;99.90
54264;DHT22;40178;53.042;6.406;2023-02-02T13:35:58;6.60;99.90
54264;DHT22;40178;53.042;6.406;2023-02-02T13:38:27;6.70;99.90
54264;DHT22;40178;53.042;6.406;2023-02-02T13:40:59;6.80;99.90
54264;DHT22;40178;53.042;6.406;2023-02-02T13:43:31;6.50;99.90
54264;DHT22;40178;53.042;6.406;2023-02-02T13:46:23;6.70;99.90
54264;DHT22;40178;53.042;6.406;2023-02-02T13:48:52;6.60;99.90
54264;DHT22;40178;53.042;6.406;2023-02-02T14:02:44;6.80;99.90
54264;DHT22;40178;53.042;6.406;2023-02-02T14:05:26;6.70;99.90
54264;DHT22;40178;53.042;6.406;2023-02-02T14:13:14;6.90;99.90
54264;DHT22;40178;53.042;6.406;2023-02-02T14:16:05;7.00;99.90
54264;DHT22;40178;53.042;6.406;2023-02-02T14:24:03;6.90;99.90
54264;DHT22;40178;53.042;6.406;2023-02-02T14:26:49;7.00;99.90
54264;DHT22;40178;53.042;6.406;2023-02-02T14:34:33;7.10;99.90
54264;DHT22;40178;53.042;6.406;2023-02-02T14:45:46;7.20;99.90
54264;DHT22;40178;53.042;6.406;2023-02-02T14:48:25;7.30;99.90
54264;DHT22;40178;53.042;6.406;2023-02-02T14:50:55;7.40;99.90
54264;DHT22;40178;53.042;6.406;2023-02-02T14:53:36;7.30;99.90
54264;DHT22;40178;53.042;6.406;2023-02-02T14:56:14;7.20;99.90
54264;DHT22;40178;53.042;6.406;2023-02-02T14:58:59;7.20;99.90
54264;DHT22;40178;53.042;6.406;2023-02-02T15:01:28;7.50;99.90
54264;DHT22;40178;53.042;6.406;2023-02-02T15:06:37;7.30;99.90
54264;DHT22;40178;53.042;6.406;2023-02-02T15:09:38;7.20;99.90
54264;DHT22;40178;53.042;6.406;2023-02-02T15:19:49;7.40;99.90
54264;DHT22;40178;53.042;6.406;2023-02-02T15:22:24;7.20;99.90
54264;DHT22;40178;53.042;6.406;2023-02-02T15:24:53;7.20;99.90
54264;DHT22;40178;53.042;6.406;2023-02-02T15:27:19;7.20;99.90
54264;DHT22;40178;53.042;6.406;2023-02-02T15:29:54;7.40;99.90
54264;DHT22;40178;53.042;6.406;2023-02-02T15:32:23;7.20;99.90
54264;DHT22;40178;53.042;6.406;2023-02-02T15:34:53;7.20;99.90
54264;DHT22;40178;53.042;6.406;2023-02-02T15:37:22;7.20;99.90
54264;DHT22;40178;53.042;6.406;2023-02-02T15:39:55;7.40;99.90
54264;DHT22;40178;53.042;6.406;2023-02-02T15:42:26;7.20;99.90
54264;DHT22;40178;53.042;6.406;2023-02-02T15:48:21;7.40;99.90
54264;DHT22;40178;53.042;6.406;2023-02-02T15:50:49;7.20;99.90
54264;DHT22;40178;53.042;6.406;2023-02-02T15:53:25;7.40;99.90
54264;DHT22;40178;53.042;6.406;2023-02-02T15:55:52;7.30;99.90
54264;DHT22;40178;53.042;6.406;2023-02-02T15:58:32;7.40;99.90
54264;DHT22;40178;53.042;6.406;2023-02-02T16:01:14;7.40;99.90
54264;DHT22;40178;53.042;6.406;2023-02-02T16:06:37;7.30;99.90
54264;DHT22;40178;53.042;6.406;2023-02-02T16:09:04;7.30;99.90
54264;DHT22;40178;53.042;6.406;2023-02-02T16:11:31;7.20;99.90
54264;DHT22;40178;53.042;6.406;2023-02-02T16:14:02;7.40;99.90
54264;DHT22;40178;53.042;6.406;2023-02-02T16:16:30;7.40;99.90
54264;DHT22;40178;53.042;6.406;2023-02-02T16:19:13;7.40;99.90
54264;DHT22;40178;53.042;6.406;2023-02-02T16:21:56;7.30;99.90
54264;DHT22;40178;53.042;6.406;2023-02-02T16:24:47;7.40;99.90
54264;DHT22;40178;53.042;6.406;2023-02-02T16:27:17;7.20;99.90
54264;DHT22;40178;53.042;6.406;2023-02-02T16:29:44;7.20;99.90
54264;DHT22;40178;53.042;6.406;2023-02-02T16:32:39;7.40;99.90
54264;DHT22;40178;53.042;6.406;2023-02-02T16:35:30;7.40;99.90
54264;DHT22;40178;53.042;6.406;2023-02-02T16:43:28;7.20;99.90
54264;DHT22;40178;53.042;6.406;2023-02-02T16:45:59;7.40;99.90
54264;DHT22;40178;53.042;6.406;2023-02-02T16:53:44;7.40;99.90
54264;DHT22;40178;53.042;6.406;2023-02-02T16:58:48;7.40;99.90
54264;DHT22;40178;53.042;6.406;2023-02-02T17:01:14;7.20;99.90
54264;DHT22;40178;53.042;6.406;2023-02-02T17:03:49;7.30;99.90
54264;DHT22;40178;53.042;6.406;2023-02-02T17:06:16;7.50;99.90
54264;DHT22;40178;53.042;6.406;2023-02-02T17:08:42;7.30;99.90
54264;DHT22;40178;53.042;6.406;2023-02-02T17:11:23;7.30;99.90
54264;DHT22;40178;53.042;6.406;2023-02-02T17:13:50;7.40;99.90
54264;DHT22;40178;53.042;6.406;2023-02-02T17:16:19;7.50;99.90
54264;DHT22;40178;53.042;6.406;2023-02-02T17:18:45;7.40;99.90
54264;DHT22;40178;53.042;6.406;2023-02-02T17:21:20;7.50;99.90
54264;DHT22;40178;53.042;6.406;2023-02-02T17:23:48;7.60;99.90
54264;DHT22;40178;53.042;6.406;2023-02-02T17:26:16;7.50;99.90
54264;DHT22;40178;53.042;6.406;2023-02-02T17:28:42;7.50;99.90
54264;DHT22;40178;53.042;6.406;2023-02-02T17:31:10;7.60;99.90
54264;DHT22;40178;53.042;6.406;2023-02-02T17:33:37;7.40;99.90
54264;DHT22;40178;53.042;6.406;2023-02-02T17:36:03;7.40;99.90
54264;DHT22;40178;53.042;6.406;2023-02-02T17:38:29;7.50;99.90
54264;DHT22;40178;53.042;6.406;2023-02-02T17:40:58;7.60;99.90
54264;DHT22;40178;53.042;6.406;2023-02-02T17:43:24;7.50;99.90
54264;DHT22;40178;53.042;6.406;2023-02-02T17:45:49;7.40;99.90
54264;DHT22;40178;53.042;6.406;2023-02-02T17:48:15;7.40;99.90
54264;DHT22;40178;53.042;6.406;2023-02-02T17:50:42;7.40;99.90
54264;DHT22;40178;53.042;6.406;2023-02-02T17:53:13;7.50;99.90
54264;DHT22;40178;53.042;6.406;2023-02-02T17:55:40;7.50;99.90
54264;DHT22;40178;53.042;6.406;2023-02-02T17:58:08;7.60;99.90
54264;DHT22;40178;53.042;6.406;2023-02-02T18:00:35;7.40;99.90
54264;DHT22;40178;53.042;6.406;2023-02-02T18:05:39;7.50;99.90
54264;DHT22;40178;53.042;6.406;2023-02-02T18:08:05;7.60;99.90
54264;DHT22;40178;53.042;6.406;2023-02-02T18:10:31;7.40;99.90
54264;DHT22;40178;53.042;6.406;2023-02-02T18:12:57;7.40;99.90
54264;DHT22;40178;53.042;6.406;2023-02-02T18:15:22;7.40;99.90
54264;DHT22;40178;53.042;6.406;2023-02-02T18:17:48;7.60;99.90
54264;DHT22;40178;53.042;6.406;2023-02-02T18:20:14;7.50;99.90
54264;DHT22;40178;53.042;6.406;2023-02-02T18:22:40;7.40;99.90
54264;DHT22;40178;53.042;6.406;2023-02-02T18:25:11;7.40;99.90
54264;DHT22;40178;53.042;6.406;2023-02-02T18:27:37;7.60;99.90
54264;DHT22;40178;53.042;6.406;2023-02-02T18:30:03;7.80;99.90
54264;DHT22;40178;53.042;6.406;2023-02-02T18:32:28;7.70;99.90
54264;DHT22;40178;53.042;6.406;2023-02-02T18:34:54;7.50;99.90